sensor_id;sensor_type;location;lat;lon;timestamp;temperature;humidity
69393;SHT31;56582;44.624;20.378;2022-08-30T00:00:20;19.26;90.70
69393;SHT31;56582;44.624;20.378;2022-08-30T00:03:06;19.14;91.27
69393;SHT31;56582;44.624;20.378;2022-08-30T00:05:33;19.08;91.23
69393;SHT31;56582;44.624;20.378;2022-08-30T00:07:58;18.98;92.00
69393;SHT31;56582;44.624;20.378;2022-08-30T00:10:25;19.05;91.49
69393;SHT31;56582;44.624;20.378;2022-08-30T00:12:53;19.08;91.34
69393;SHT31;56582;44.624;20.378;2022-08-30T00:15:19;19.14;91.06
69393;SHT31;56582;44.624;20.378;2022-08-30T00:17:45;19.21;90.66
69393;SHT31;56582;44.624;20.378;2022-08-30T00:20:13;19.16;90.77
69393;SHT31;56582;44.624;20.378;2022-08-30T00:22:40;19.22;91.12
69393;SHT31;56582;44.624;20.378;2022-08-30T00:25:06;19.01;91.86
69393;SHT31;56582;44.624;20.378;2022-08-30T00:27:32;19.10;91.96
69393;SHT31;56582;44.624;20.378;2022-08-30T00:29:57;19.05;92.00
69393;SHT31;56582;44.624;20.378;2022-08-30T00:32:23;18.95;92.46
69393;SHT31;56582;44.624;20.378;2022-08-30T00:34:53;18.94;92.37
69393;SHT31;56582;44.624;20.378;2022-08-30T00:37:19;19.15;91.88
69393;SHT31;56582;44.624;20.378;2022-08-30T00:39:45;19.11;91.64
69393;SHT31;56582;44.624;20.378;2022-08-30T00:42:11;18.95;92.26
69393;SHT31;56582;44.624;20.378;2022-08-30T00:44:37;19.08;92.06
69393;SHT31;56582;44.624;20.378;2022-08-30T00:47:03;19.22;91.32
69393;SHT31;56582;44.624;20.378;2022-08-30T00:49:29;19.26;91.07
69393;SHT31;56582;44.624;20.378;2022-08-30T00:51:56;19.25;91.06
69393;SHT31;56582;44.624;20.378;2022-08-30T00:54:22;19.34;90.81
69393;SHT31;56582;44.624;20.378;2022-08-30T00:56:50;19.29;90.69
69393;SHT31;56582;44.624;20.378;2022-08-30T00:59:16;19.41;90.37
69393;SHT31;56582;44.624;20.378;2022-08-30T01:01:42;19.48;89.99
69393;SHT31;56582;44.624;20.378;2022-08-30T01:04:09;19.58;89.30
69393;SHT31;56582;44.624;20.378;2022-08-30T01:06:36;19.44;89.48
69393;SHT31;56582;44.624;20.378;2022-08-30T01:09:04;19.26;90.03
69393;SHT31;56582;44.624;20.378;2022-08-30T01:11:32;19.32;89.98
69393;SHT31;56582;44.624;20.378;2022-08-30T01:14:00;19.05;90.29
69393;SHT31;56582;44.624;20.378;2022-08-30T01:16:26;19.29;89.95
69393;SHT31;56582;44.624;20.378;2022-08-30T01:18:55;19.14;90.03
69393;SHT31;56582;44.624;20.378;2022-08-30T01:21:29;19.15;90.17
69393;SHT31;56582;44.624;20.378;2022-08-30T01:23:57;19.10;90.31
69393;SHT31;56582;44.624;20.378;2022-08-30T01:26:24;19.10;90.35
69393;SHT31;56582;44.624;20.378;2022-08-30T01:28:57;19.12;90.20
69393;SHT31;56582;44.624;20.378;2022-08-30T01:31:24;19.25;90.34
69393;SHT31;56582;44.624;20.378;2022-08-30T01:33:50;19.12;90.17
69393;SHT31;56582;44.624;20.378;2022-08-30T01:36:17;19.15;90.23
69393;SHT31;56582;44.624;20.378;2022-08-30T01:38:49;19.21;89.95
69393;SHT31;56582;44.624;20.378;2022-08-30T01:41:24;19.26;89.40
69393;SHT31;56582;44.624;20.378;2022-08-30T01:43:52;19.21;89.62
69393;SHT31;56582;44.624;20.378;2022-08-30T01:46:20;19.24;89.67
69393;SHT31;56582;44.624;20.378;2022-08-30T01:48:47;19.08;90.47
69393;SHT31;56582;44.624;20.378;2022-08-30T01:51:14;19.16;90.34
69393;SHT31;56582;44.624;20.378;2022-08-30T01:53:42;19.22;90.20
69393;SHT31;56582;44.624;20.378;2022-08-30T01:56:08;18.97;90.98
69393;SHT31;56582;44.624;20.378;2022-08-30T01:58:34;19.03;91.34
69393;SHT31;56582;44.624;20.378;2022-08-30T02:01:03;19.11;91.42
69393;SHT31;56582;44.624;20.378;2022-08-30T02:03:28;18.97;91.90
69393;SHT31;56582;44.624;20.378;2022-08-30T02:06:06;18.84;92.14
69393;SHT31;56582;44.624;20.378;2022-08-30T02:08:32;18.84;92.19
69393;SHT31;56582;44.624;20.378;2022-08-30T02:10:58;18.98;92.00
69393;SHT31;56582;44.624;20.378;2022-08-30T02:13:25;18.91;92.06
69393;SHT31;56582;44.624;20.378;2022-08-30T02:15:51;18.97;91.67
69393;SHT31;56582;44.624;20.378;2022-08-30T02:18:19;19.00;91.68
69393;SHT31;56582;44.624;20.378;2022-08-30T02:20:45;19.05;91.50
69393;SHT31;56582;44.624;20.378;2022-08-30T02:23:10;19.66;92.97
69393;SHT31;56582;44.624;20.378;2022-08-30T02:25:36;20.34;90.62
69393;SHT31;56582;44.624;20.378;2022-08-30T02:28:03;20.65;89.04
69393;SHT31;56582;44.624;20.378;2022-08-30T02:30:29;20.82;88.31
69393;SHT31;56582;44.624;20.378;2022-08-30T02:32:54;21.14;87.11
69393;SHT31;56582;44.624;20.378;2022-08-30T02:35:20;21.33;86.60
69393;SHT31;56582;44.624;20.378;2022-08-30T02:37:45;21.47;86.08
69393;SHT31;56582;44.624;20.378;2022-08-30T02:51:30;22.81;81.30
69393;SHT31;56582;44.624;20.378;2022-08-30T02:53:55;22.84;81.60
69393;SHT31;56582;44.624;20.378;2022-08-30T02:56:21;22.50;81.01
69393;SHT31;56582;44.624;20.378;2022-08-30T02:58:46;22.22;83.12
69393;SHT31;56582;44.624;20.378;2022-08-30T03:01:14;22.22;84.35
69393;SHT31;56582;44.624;20.378;2022-08-30T03:03:41;22.37;83.61
69393;SHT31;56582;44.624;20.378;2022-08-30T03:06:07;22.39;83.00
69393;SHT31;56582;44.624;20.378;2022-08-30T03:08:35;22.46;82.89
69393;SHT31;56582;44.624;20.378;2022-08-30T03:11:01;22.47;83.50
69393;SHT31;56582;44.624;20.378;2022-08-30T03:13:27;22.42;83.51
69393;SHT31;56582;44.624;20.378;2022-08-30T03:15:52;22.50;83.12
69393;SHT31;56582;44.624;20.378;2022-08-30T03:18:20;22.73;82.19
69393;SHT31;56582;44.624;20.378;2022-08-30T03:20:46;22.86;81.17
69393;SHT31;56582;44.624;20.378;2022-08-30T03:23:14;22.95;80.96
69393;SHT31;56582;44.624;20.378;2022-08-30T03:25:40;22.94;80.89
69393;SHT31;56582;44.624;20.378;2022-08-30T03:28:06;22.88;80.99
69393;SHT31;56582;44.624;20.378;2022-08-30T03:30:32;22.88;81.07
69393;SHT31;56582;44.624;20.378;2022-08-30T03:32:58;23.00;80.60
69393;SHT31;56582;44.624;20.378;2022-08-30T03:35:23;22.97;80.58
69393;SHT31;56582;44.624;20.378;2022-08-30T03:37:49;22.98;80.16
69393;SHT31;56582;44.624;20.378;2022-08-30T03:40:16;22.37;80.06
69393;SHT31;56582;44.624;20.378;2022-08-30T03:42:43;21.74;81.41
69393;SHT31;56582;44.624;20.378;2022-08-30T03:45:09;21.24;82.81
69393;SHT31;56582;44.624;20.378;2022-08-30T03:47:35;20.86;84.22
69393;SHT31;56582;44.624;20.378;2022-08-30T03:50:00;20.58;85.35
69393;SHT31;56582;44.624;20.378;2022-08-30T03:52:26;20.56;85.29
69393;SHT31;56582;44.624;20.378;2022-08-30T03:54:52;20.41;85.71
69393;SHT31;56582;44.624;20.378;2022-08-30T03:57:17;20.24;86.05
69393;SHT31;56582;44.624;20.378;2022-08-30T03:59:43;20.53;88.82
69393;SHT31;56582;44.624;20.378;2022-08-30T04:02:08;21.03;90.99
69393;SHT31;56582;44.624;20.378;2022-08-30T04:04:34;20.79;86.15
69393;SHT31;56582;44.624;20.378;2022-08-30T04:06:59;20.76;83.94
69393;SHT31;56582;44.624;20.378;2022-08-30T04:09:25;20.67;82.88
69393;SHT31;56582;44.624;20.378;2022-08-30T04:11:53;20.49;84.57
69393;SHT31;56582;44.624;20.378;2022-08-30T04:14:22;20.32;85.25
69393;SHT31;56582;44.624;20.378;2022-08-30T04:16:48;20.28;86.09
69393;SHT31;56582;44.624;20.378;2022-08-30T04:19:13;20.24;86.78
69393;SHT31;56582;44.624;20.378;2022-08-30T04:21:39;20.13;87.48
69393;SHT31;56582;44.624;20.378;2022-08-30T04:24:04;20.10;87.47
69393;SHT31;56582;44.624;20.378;2022-08-30T04:26:30;20.07;87.42
69393;SHT31;56582;44.624;20.378;2022-08-30T04:28:56;19.96;87.48
69393;SHT31;56582;44.624;20.378;2022-08-30T04:31:22;19.76;88.10
69393;SHT31;56582;44.624;20.378;2022-08-30T04:33:47;19.90;87.99
69393;SHT31;56582;44.624;20.378;2022-08-30T04:36:14;19.82;88.89
69393;SHT31;56582;44.624;20.378;2022-08-30T04:38:41;19.80;90.69
69393;SHT31;56582;44.624;20.378;2022-08-30T04:41:12;19.82;89.37
69393;SHT31;56582;44.624;20.378;2022-08-30T04:43:41;19.83;88.82
69393;SHT31;56582;44.624;20.378;2022-08-30T04:46:07;19.84;89.03
69393;SHT31;56582;44.624;20.378;2022-08-30T04:48:34;19.79;89.32
69393;SHT31;56582;44.624;20.378;2022-08-30T04:51:06;19.63;90.02
69393;SHT31;56582;44.624;20.378;2022-08-30T04:53:32;19.62;90.09
69393;SHT31;56582;44.624;20.378;2022-08-30T04:55:58;19.70;90.02
69393;SHT31;56582;44.624;20.378;2022-08-30T04:58:23;19.67;90.20
69393;SHT31;56582;44.624;20.378;2022-08-30T05:00:49;19.77;89.75
69393;SHT31;56582;44.624;20.378;2022-08-30T05:03:14;19.87;89.57
69393;SHT31;56582;44.624;20.378;2022-08-30T05:05:47;19.86;89.14
69393;SHT31;56582;44.624;20.378;2022-08-30T05:08:14;19.69;90.38
69393;SHT31;56582;44.624;20.378;2022-08-30T05:10:41;19.72;90.51
69393;SHT31;56582;44.624;20.378;2022-08-30T05:13:08;19.58;91.82
69393;SHT31;56582;44.624;20.378;2022-08-30T05:15:34;19.62;91.34
69393;SHT31;56582;44.624;20.378;2022-08-30T05:18:00;19.76;90.49
69393;SHT31;56582;44.624;20.378;2022-08-30T05:20:25;19.80;90.22
69393;SHT31;56582;44.624;20.378;2022-08-30T05:22:51;19.93;89.79
69393;SHT31;56582;44.624;20.378;2022-08-30T05:25:18;19.89;90.76
69393;SHT31;56582;44.624;20.378;2022-08-30T05:27:46;19.92;90.37
69393;SHT31;56582;44.624;20.378;2022-08-30T05:30:15;19.93;90.30
69393;SHT31;56582;44.624;20.378;2022-08-30T05:32:42;19.96;90.34
69393;SHT31;56582;44.624;20.378;2022-08-30T05:35:09;19.97;90.24
69393;SHT31;56582;44.624;20.378;2022-08-30T05:37:35;19.89;90.47
69393;SHT31;56582;44.624;20.378;2022-08-30T05:40:02;19.93;90.57
69393;SHT31;56582;44.624;20.378;2022-08-30T05:42:28;20.03;90.01
69393;SHT31;56582;44.624;20.378;2022-08-30T05:44:53;19.97;89.74
69393;SHT31;56582;44.624;20.378;2022-08-30T05:47:19;20.09;89.91
69393;SHT31;56582;44.624;20.378;2022-08-30T05:49:45;20.13;89.87
69393;SHT31;56582;44.624;20.378;2022-08-30T05:52:12;20.09;90.20
69393;SHT31;56582;44.624;20.378;2022-08-30T05:54:40;19.97;90.81
69393;SHT31;56582;44.624;20.378;2022-08-30T05:57:06;20.00;90.84
69393;SHT31;56582;44.624;20.378;2022-08-30T05:59:32;20.13;90.51
69393;SHT31;56582;44.624;20.378;2022-08-30T06:01:58;20.18;90.28
69393;SHT31;56582;44.624;20.378;2022-08-30T06:04:24;20.17;90.60
69393;SHT31;56582;44.624;20.378;2022-08-30T06:06:49;20.11;91.23
69393;SHT31;56582;44.624;20.378;2022-08-30T06:09:16;20.11;91.21
69393;SHT31;56582;44.624;20.378;2022-08-30T06:11:43;20.10;91.45
69393;SHT31;56582;44.624;20.378;2022-08-30T06:14:08;20.16;91.12
69393;SHT31;56582;44.624;20.378;2022-08-30T06:16:36;20.14;91.27
69393;SHT31;56582;44.624;20.378;2022-08-30T06:19:04;20.16;91.42
69393;SHT31;56582;44.624;20.378;2022-08-30T06:21:32;20.14;91.78
69393;SHT31;56582;44.624;20.378;2022-08-30T06:23:59;20.07;91.94
69393;SHT31;56582;44.624;20.378;2022-08-30T06:26:25;20.13;92.10
69393;SHT31;56582;44.624;20.378;2022-08-30T06:28:52;20.06;91.61
69393;SHT31;56582;44.624;20.378;2022-08-30T06:31:19;20.10;91.73
69393;SHT31;56582;44.624;20.378;2022-08-30T06:33:45;20.07;92.06
69393;SHT31;56582;44.624;20.378;2022-08-30T06:36:14;20.18;91.57
69393;SHT31;56582;44.624;20.378;2022-08-30T06:38:40;20.23;91.33
69393;SHT31;56582;44.624;20.378;2022-08-30T06:41:11;20.35;90.82
69393;SHT31;56582;44.624;20.378;2022-08-30T06:43:37;20.37;90.67
69393;SHT31;56582;44.624;20.378;2022-08-30T06:46:11;20.34;90.77
69393;SHT31;56582;44.624;20.378;2022-08-30T06:48:37;20.47;90.38
69393;SHT31;56582;44.624;20.378;2022-08-30T06:51:03;20.58;90.58
69393;SHT31;56582;44.624;20.378;2022-08-30T06:53:28;20.64;89.87
69393;SHT31;56582;44.624;20.378;2022-08-30T06:55:56;20.75;89.48
69393;SHT31;56582;44.624;20.378;2022-08-30T06:58:21;20.61;89.78
69393;SHT31;56582;44.624;20.378;2022-08-30T07:00:47;20.32;90.40
69393;SHT31;56582;44.624;20.378;2022-08-30T07:03:12;20.37;90.40
69393;SHT31;56582;44.624;20.378;2022-08-30T07:05:38;20.40;90.26
69393;SHT31;56582;44.624;20.378;2022-08-30T07:08:03;20.31;89.63
69393;SHT31;56582;44.624;20.378;2022-08-30T07:10:29;20.44;90.27
69393;SHT31;56582;44.624;20.378;2022-08-30T07:12:54;20.34;90.44
69393;SHT31;56582;44.624;20.378;2022-08-30T07:15:20;20.51;89.80
69393;SHT31;56582;44.624;20.378;2022-08-30T07:17:47;20.78;89.57
69393;SHT31;56582;44.624;20.378;2022-08-30T07:20:32;20.89;89.78
69393;SHT31;56582;44.624;20.378;2022-08-30T07:22:57;20.82;90.46
69393;SHT31;56582;44.624;20.378;2022-08-30T07:25:23;20.82;90.50
69393;SHT31;56582;44.624;20.378;2022-08-30T07:27:48;20.86;90.74
69393;SHT31;56582;44.624;20.378;2022-08-30T07:30:17;20.90;90.74
69393;SHT31;56582;44.624;20.378;2022-08-30T07:32:42;20.98;90.93
69393;SHT31;56582;44.624;20.378;2022-08-30T07:35:08;20.98;91.28
69393;SHT31;56582;44.624;20.378;2022-08-30T07:37:33;21.22;90.87
69393;SHT31;56582;44.624;20.378;2022-08-30T07:39:59;21.20;90.92
69393;SHT31;56582;44.624;20.378;2022-08-30T07:42:24;21.31;90.53
69393;SHT31;56582;44.624;20.378;2022-08-30T07:44:50;21.24;90.01
69393;SHT31;56582;44.624;20.378;2022-08-30T07:47:15;21.37;89.45
69393;SHT31;56582;44.624;20.378;2022-08-30T07:49:41;21.41;90.05
69393;SHT31;56582;44.624;20.378;2022-08-30T07:52:08;21.41;90.36
69393;SHT31;56582;44.624;20.378;2022-08-30T07:54:33;21.53;89.63
69393;SHT31;56582;44.624;20.378;2022-08-30T07:56:59;21.65;89.28
69393;SHT31;56582;44.624;20.378;2022-08-30T07:59:24;21.73;88.91
69393;SHT31;56582;44.624;20.378;2022-08-30T08:01:50;21.71;89.05
69393;SHT31;56582;44.624;20.378;2022-08-30T08:04:15;21.77;87.73
69393;SHT31;56582;44.624;20.378;2022-08-30T08:06:41;21.74;88.50
69393;SHT31;56582;44.624;20.378;2022-08-30T08:09:07;21.87;88.35
69393;SHT31;56582;44.624;20.378;2022-08-30T08:11:34;22.10;87.54
69393;SHT31;56582;44.624;20.378;2022-08-30T08:14:00;21.92;86.40
69393;SHT31;56582;44.624;20.378;2022-08-30T08:16:27;22.09;87.38
69393;SHT31;56582;44.624;20.378;2022-08-30T08:18:54;22.08;86.26
69393;SHT31;56582;44.624;20.378;2022-08-30T08:21:21;22.35;87.56
69393;SHT31;56582;44.624;20.378;2022-08-30T08:23:46;22.59;85.48
69393;SHT31;56582;44.624;20.378;2022-08-30T08:26:12;22.49;84.76
69393;SHT31;56582;44.624;20.378;2022-08-30T08:28:38;22.18;84.54
69393;SHT31;56582;44.624;20.378;2022-08-30T08:31:13;22.15;85.52
69393;SHT31;56582;44.624;20.378;2022-08-30T08:33:38;22.33;86.30
69393;SHT31;56582;44.624;20.378;2022-08-30T08:36:05;22.42;85.38
69393;SHT31;56582;44.624;20.378;2022-08-30T08:38:30;22.42;85.00
69393;SHT31;56582;44.624;20.378;2022-08-30T08:43:46;22.70;85.53
69393;SHT31;56582;44.624;20.378;2022-08-30T08:49:15;23.08;85.62
69393;SHT31;56582;44.624;20.378;2022-08-30T08:51:41;23.16;85.76
69393;SHT31;56582;44.624;20.378;2022-08-30T08:54:51;23.10;84.62
69393;SHT31;56582;44.624;20.378;2022-08-30T08:57:21;23.35;84.49
69393;SHT31;56582;44.624;20.378;2022-08-30T08:59:47;22.83;83.36
69393;SHT31;56582;44.624;20.378;2022-08-30T09:02:25;22.98;83.57
69393;SHT31;56582;44.624;20.378;2022-08-30T09:04:58;23.33;83.46
69393;SHT31;56582;44.624;20.378;2022-08-30T09:07:31;23.37;83.56
69393;SHT31;56582;44.624;20.378;2022-08-30T09:09:59;23.15;80.62
69393;SHT31;56582;44.624;20.378;2022-08-30T09:12:26;23.48;82.27
69393;SHT31;56582;44.624;20.378;2022-08-30T09:14:54;23.45;81.79
69393;SHT31;56582;44.624;20.378;2022-08-30T09:17:21;23.01;81.94
69393;SHT31;56582;44.624;20.378;2022-08-30T09:22:36;23.46;83.45
69393;SHT31;56582;44.624;20.378;2022-08-30T09:27:39;23.16;82.78
69393;SHT31;56582;44.624;20.378;2022-08-30T09:33:00;23.29;82.68
69393;SHT31;56582;44.624;20.378;2022-08-30T09:35:48;23.31;83.74
69393;SHT31;56582;44.624;20.378;2022-08-30T09:38:25;23.53;82.63
69393;SHT31;56582;44.624;20.378;2022-08-30T09:40:55;23.52;82.15
69393;SHT31;56582;44.624;20.378;2022-08-30T09:43:29;23.37;83.12
69393;SHT31;56582;44.624;20.378;2022-08-30T09:48:36;23.58;81.07
69393;SHT31;56582;44.624;20.378;2022-08-30T09:53:51;23.07;82.09
69393;SHT31;56582;44.624;20.378;2022-08-30T09:59:42;23.37;84.29
69393;SHT31;56582;44.624;20.378;2022-08-30T10:04:53;23.62;84.45
69393;SHT31;56582;44.624;20.378;2022-08-30T10:07:26;23.28;81.40
69393;SHT31;56582;44.624;20.378;2022-08-30T10:09:58;23.26;82.06
69393;SHT31;56582;44.624;20.378;2022-08-30T10:15:42;23.58;82.90
69393;SHT31;56582;44.624;20.378;2022-08-30T10:18:27;23.73;81.93
69393;SHT31;56582;44.624;20.378;2022-08-30T10:21:14;23.82;82.03
69393;SHT31;56582;44.624;20.378;2022-08-30T10:23:46;23.77;81.00
69393;SHT31;56582;44.624;20.378;2022-08-30T10:26:21;23.62;82.95
69393;SHT31;56582;44.624;20.378;2022-08-30T10:31:53;23.90;80.98
69393;SHT31;56582;44.624;20.378;2022-08-30T10:34:26;23.83;81.38
69393;SHT31;56582;44.624;20.378;2022-08-30T10:36:58;23.93;81.49
69393;SHT31;56582;44.624;20.378;2022-08-30T10:39:29;24.34;82.70
69393;SHT31;56582;44.624;20.378;2022-08-30T10:42:05;24.59;82.25
69393;SHT31;56582;44.624;20.378;2022-08-30T10:44:36;24.41;81.23
69393;SHT31;56582;44.624;20.378;2022-08-30T10:49:56;24.75;80.45
69393;SHT31;56582;44.624;20.378;2022-08-30T10:57:46;24.37;79.43
69393;SHT31;56582;44.624;20.378;2022-08-30T11:00:15;24.45;79.96
69393;SHT31;56582;44.624;20.378;2022-08-30T11:13:28;25.43;78.18
69393;SHT31;56582;44.624;20.378;2022-08-30T11:18:28;25.46;79.00
69393;SHT31;56582;44.624;20.378;2022-08-30T11:21:22;25.43;76.58
69393;SHT31;56582;44.624;20.378;2022-08-30T11:37:31;25.34;79.24
69393;SHT31;56582;44.624;20.378;2022-08-30T11:42:53;25.27;78.82
69393;SHT31;56582;44.624;20.378;2022-08-30T11:47:47;25.26;80.27
69393;SHT31;56582;44.624;20.378;2022-08-30T11:58:53;25.56;79.08
69393;SHT31;56582;44.624;20.378;2022-08-30T12:03:54;25.40;77.75
69393;SHT31;56582;44.624;20.378;2022-08-30T12:09:08;25.73;79.68
69393;SHT31;56582;44.624;20.378;2022-08-30T12:14:02;25.78;75.92
69393;SHT31;56582;44.624;20.378;2022-08-30T12:16:42;25.28;78.81
69393;SHT31;56582;44.624;20.378;2022-08-30T12:19:28;25.13;79.66
69393;SHT31;56582;44.624;20.378;2022-08-30T12:22:01;25.16;80.11
69393;SHT31;56582;44.624;20.378;2022-08-30T12:24:31;25.43;80.42
69393;SHT31;56582;44.624;20.378;2022-08-30T12:27:01;25.57;79.97
69393;SHT31;56582;44.624;20.378;2022-08-30T12:30:00;25.63;78.41
69393;SHT31;56582;44.624;20.378;2022-08-30T12:32:27;25.57;78.76
69393;SHT31;56582;44.624;20.378;2022-08-30T12:35:02;25.51;78.44
69393;SHT31;56582;44.624;20.378;2022-08-30T12:37:35;25.80;79.15
69393;SHT31;56582;44.624;20.378;2022-08-30T12:40:07;25.60;78.35
69393;SHT31;56582;44.624;20.378;2022-08-30T12:42:38;25.86;77.10
69393;SHT31;56582;44.624;20.378;2022-08-30T12:45:12;25.54;76.99
69393;SHT31;56582;44.624;20.378;2022-08-30T12:47:47;25.58;78.58
69393;SHT31;56582;44.624;20.378;2022-08-30T12:50:18;25.38;77.59
69393;SHT31;56582;44.624;20.378;2022-08-30T12:52:47;25.37;78.27
69393;SHT31;56582;44.624;20.378;2022-08-30T12:55:26;25.30;78.07
69393;SHT31;56582;44.624;20.378;2022-08-30T13:02:53;25.51;77.62
69393;SHT31;56582;44.624;20.378;2022-08-30T13:10:58;25.41;79.17
69393;SHT31;56582;44.624;20.378;2022-08-30T13:13:45;25.71;78.84
69393;SHT31;56582;44.624;20.378;2022-08-30T13:16:20;25.96;77.90
69393;SHT31;56582;44.624;20.378;2022-08-30T13:18:50;26.13;77.52
69393;SHT31;56582;44.624;20.378;2022-08-30T13:23:58;26.19;76.99
69393;SHT31;56582;44.624;20.378;2022-08-30T13:26:24;26.29;76.74
69393;SHT31;56582;44.624;20.378;2022-08-30T13:28:56;26.16;76.41
69393;SHT31;56582;44.624;20.378;2022-08-30T13:31:23;26.21;77.60
69393;SHT31;56582;44.624;20.378;2022-08-30T13:33:50;26.09;78.32
69393;SHT31;56582;44.624;20.378;2022-08-30T13:36:34;26.02;76.31
69393;SHT31;56582;44.624;20.378;2022-08-30T13:39:04;25.82;74.72
69393;SHT31;56582;44.624;20.378;2022-08-30T13:41:30;25.65;74.92
69393;SHT31;56582;44.624;20.378;2022-08-30T13:43:56;25.67;75.62
69393;SHT31;56582;44.624;20.378;2022-08-30T13:46:22;25.77;75.80
69393;SHT31;56582;44.624;20.378;2022-08-30T13:48:52;25.89;75.54
69393;SHT31;56582;44.624;20.378;2022-08-30T13:51:22;25.98;76.39
69393;SHT31;56582;44.624;20.378;2022-08-30T13:53:47;26.35;74.33
69393;SHT31;56582;44.624;20.378;2022-08-30T13:56:13;25.86;73.36
69393;SHT31;56582;44.624;20.378;2022-08-30T13:58:38;25.98;74.27
69393;SHT31;56582;44.624;20.378;2022-08-30T14:01:04;26.25;72.23
69393;SHT31;56582;44.624;20.378;2022-08-30T14:03:29;26.18;73.93
69393;SHT31;56582;44.624;20.378;2022-08-30T14:05:55;26.13;73.51
69393;SHT31;56582;44.624;20.378;2022-08-30T14:08:25;26.21;74.68
69393;SHT31;56582;44.624;20.378;2022-08-30T14:10:53;26.35;75.22
69393;SHT31;56582;44.624;20.378;2022-08-30T14:13:18;26.23;72.86
69393;SHT31;56582;44.624;20.378;2022-08-30T14:15:44;26.33;74.65
69393;SHT31;56582;44.624;20.378;2022-08-30T14:18:11;26.59;74.51
69393;SHT31;56582;44.624;20.378;2022-08-30T14:20:36;26.67;71.88
69393;SHT31;56582;44.624;20.378;2022-08-30T14:23:02;26.46;68.91
69393;SHT31;56582;44.624;20.378;2022-08-30T14:25:28;26.86;70.54
69393;SHT31;56582;44.624;20.378;2022-08-30T14:27:56;27.04;70.35
69393;SHT31;56582;44.624;20.378;2022-08-30T14:30:23;26.91;66.67
69393;SHT31;56582;44.624;20.378;2022-08-30T14:32:49;27.04;69.40
69393;SHT31;56582;44.624;20.378;2022-08-30T14:35:14;26.90;68.83
69393;SHT31;56582;44.624;20.378;2022-08-30T14:37:43;26.52;69.79
69393;SHT31;56582;44.624;20.378;2022-08-30T14:40:09;26.61;70.43
69393;SHT31;56582;44.624;20.378;2022-08-30T14:42:35;26.64;70.28
69393;SHT31;56582;44.624;20.378;2022-08-30T14:45:00;27.12;69.75
69393;SHT31;56582;44.624;20.378;2022-08-30T14:47:25;27.05;69.59
69393;SHT31;56582;44.624;20.378;2022-08-30T14:49:51;26.98;68.59
69393;SHT31;56582;44.624;20.378;2022-08-30T14:52:18;26.43;69.18
69393;SHT31;56582;44.624;20.378;2022-08-30T14:54:43;26.32;69.49
69393;SHT31;56582;44.624;20.378;2022-08-30T14:57:09;26.52;68.86
69393;SHT31;56582;44.624;20.378;2022-08-30T14:59:35;26.39;69.56
69393;SHT31;56582;44.624;20.378;2022-08-30T15:02:00;26.26;68.56
69393;SHT31;56582;44.624;20.378;2022-08-30T15:04:26;26.02;70.61
69393;SHT31;56582;44.624;20.378;2022-08-30T15:06:51;26.19;70.07
69393;SHT31;56582;44.624;20.378;2022-08-30T15:09:20;26.43;71.67
69393;SHT31;56582;44.624;20.378;2022-08-30T15:11:47;26.06;70.59
69393;SHT31;56582;44.624;20.378;2022-08-30T15:14:12;26.04;70.60
69393;SHT31;56582;44.624;20.378;2022-08-30T15:16:38;26.05;70.20
69393;SHT31;56582;44.624;20.378;2022-08-30T15:19:06;26.46;69.93
69393;SHT31;56582;44.624;20.378;2022-08-30T15:21:37;26.29;70.21
69393;SHT31;56582;44.624;20.378;2022-08-30T15:24:05;26.19;71.67
69393;SHT31;56582;44.624;20.378;2022-08-30T15:26:31;26.26;71.20
69393;SHT31;56582;44.624;20.378;2022-08-30T15:28:56;26.31;73.84
69393;SHT31;56582;44.624;20.378;2022-08-30T15:31:23;26.35;75.10
69393;SHT31;56582;44.624;20.378;2022-08-30T15:33:50;26.46;72.30
69393;SHT31;56582;44.624;20.378;2022-08-30T15:36:16;26.35;74.27
69393;SHT31;56582;44.624;20.378;2022-08-30T15:38:41;26.28;75.72
69393;SHT31;56582;44.624;20.378;2022-08-30T15:41:09;26.08;75.41
69393;SHT31;56582;44.624;20.378;2022-08-30T15:43:35;25.98;75.74
69393;SHT31;56582;44.624;20.378;2022-08-30T15:46:20;25.80;77.78
69393;SHT31;56582;44.624;20.378;2022-08-30T15:48:50;25.80;78.66
69393;SHT31;56582;44.624;20.378;2022-08-30T15:51:17;25.80;77.49
69393;SHT31;56582;44.624;20.378;2022-08-30T15:53:44;25.82;76.28
69393;SHT31;56582;44.624;20.378;2022-08-30T15:56:10;25.80;77.47
69393;SHT31;56582;44.624;20.378;2022-08-30T15:58:37;25.67;78.34
69393;SHT31;56582;44.624;20.378;2022-08-30T16:01:03;25.67;75.95
69393;SHT31;56582;44.624;20.378;2022-08-30T16:03:33;25.67;76.01
69393;SHT31;56582;44.624;20.378;2022-08-30T16:05:59;25.48;76.79
69393;SHT31;56582;44.624;20.378;2022-08-30T16:08:26;25.15;78.41
69393;SHT31;56582;44.624;20.378;2022-08-30T16:10:52;25.31;77.31
69393;SHT31;56582;44.624;20.378;2022-08-30T16:13:17;25.31;76.33
69393;SHT31;56582;44.624;20.378;2022-08-30T16:15:43;25.13;77.99
69393;SHT31;56582;44.624;20.378;2022-08-30T16:18:10;25.07;78.68
69393;SHT31;56582;44.624;20.378;2022-08-30T16:20:40;25.16;78.43
69393;SHT31;56582;44.624;20.378;2022-08-30T16:23:07;25.09;78.61
69393;SHT31;56582;44.624;20.378;2022-08-30T16:25:33;24.88;79.34
69393;SHT31;56582;44.624;20.378;2022-08-30T16:27:58;24.83;79.64
69393;SHT31;56582;44.624;20.378;2022-08-30T16:30:24;24.83;79.63
69393;SHT31;56582;44.624;20.378;2022-08-30T16:32:49;24.92;79.00
69393;SHT31;56582;44.624;20.378;2022-08-30T16:35:15;24.85;79.48
69393;SHT31;56582;44.624;20.378;2022-08-30T16:37:41;24.86;80.45
69393;SHT31;56582;44.624;20.378;2022-08-30T16:40:07;24.86;80.93
69393;SHT31;56582;44.624;20.378;2022-08-30T16:42:33;24.76;81.27
69393;SHT31;56582;44.624;20.378;2022-08-30T16:44:58;24.61;81.10
69393;SHT31;56582;44.624;20.378;2022-08-30T16:47:24;24.49;80.58
69393;SHT31;56582;44.624;20.378;2022-08-30T16:49:49;24.45;80.57
69393;SHT31;56582;44.624;20.378;2022-08-30T16:52:15;24.45;80.59
69393;SHT31;56582;44.624;20.378;2022-08-30T16:54:40;24.42;80.93
69393;SHT31;56582;44.624;20.378;2022-08-30T16:57:06;24.32;80.97
69393;SHT31;56582;44.624;20.378;2022-08-30T16:59:31;24.17;80.92
69393;SHT31;56582;44.624;20.378;2022-08-30T17:01:57;24.17;80.80
69393;SHT31;56582;44.624;20.378;2022-08-30T17:04:22;24.11;80.61
69393;SHT31;56582;44.624;20.378;2022-08-30T17:06:48;24.25;80.80
69393;SHT31;56582;44.624;20.378;2022-08-30T17:09:14;24.30;79.81
69393;SHT31;56582;44.624;20.378;2022-08-30T17:11:40;24.24;79.76